sensor_id;sensor_type;location;lat;lon;timestamp;P1;durP1;ratioP1;P2;durP2;ratioP2
18754;SDS011;35061;47.664;9.166;2022-12-29T00:01:53;2.33;;;2.12;;
18754;SDS011;35061;47.664;9.166;2022-12-29T00:04:22;3.42;;;2.40;;
18754;SDS011;35061;47.664;9.166;2022-12-29T00:06:50;3.83;;;2.30;;
18754;SDS011;35061;47.664;9.166;2022-12-29T00:09:19;3.20;;;2.25;;
18754;SDS011;35061;47.664;9.166;2022-12-29T00:11:48;5.40;;;2.55;;
18754;SDS011;35061;47.664;9.166;2022-12-29T00:14:17;3.85;;;2.50;;
18754;SDS011;35061;47.664;9.166;2022-12-29T00:17:04;3.33;;;2.20;;
18754;SDS011;35061;47.664;9.166;2022-12-29T00:19:32;3.90;;;2.22;;
18754;SDS011;35061;47.664;9.166;2022-12-29T00:22:19;4.03;;;2.75;;
18754;SDS011;35061;47.664;9.166;2022-12-29T00:25:07;3.15;;;2.20;;
18754;SDS011;35061;47.664;9.166;2022-12-29T00:27:55;3.10;;;2.30;;
18754;SDS011;35061;47.664;9.166;2022-12-29T00:30:43;2.42;;;2.10;;
18754;SDS011;35061;47.664;9.166;2022-12-29T00:33:30;4.32;;;2.25;;
18754;SDS011;35061;47.664;9.166;2022-12-29T00:36:19;5.28;;;2.70;;
18754;SDS011;35061;47.664;9.166;2022-12-29T00:38:53;3.55;;;2.37;;
18754;SDS011;35061;47.664;9.166;2022-12-29T00:41:43;3.08;;;2.20;;
18754;SDS011;35061;47.664;9.166;2022-12-29T00:44:29;3.12;;;2.20;;
18754;SDS011;35061;47.664;9.166;2022-12-29T00:46:57;3.15;;;2.20;;
18754;SDS011;35061;47.664;9.166;2022-12-29T00:49:29;3.80;;;2.42;;
18754;SDS011;35061;47.664;9.166;2022-12-29T00:52:00;3.58;;;2.20;;
18754;SDS011;35061;47.664;9.166;2022-12-29T00:54:31;3.30;;;2.12;;
18754;SDS011;35061;47.664;9.166;2022-12-29T00:57:00;3.78;;;1.92;;
18754;SDS011;35061;47.664;9.166;2022-12-29T00:59:29;2.55;;;1.65;;
18754;SDS011;35061;47.664;9.166;2022-12-29T01:01:57;2.22;;;2.03;;
18754;SDS011;35061;47.664;9.166;2022-12-29T01:04:26;2.62;;;2.37;;
18754;SDS011;35061;47.664;9.166;2022-12-29T01:06:54;2.35;;;1.75;;
18754;SDS011;35061;47.664;9.166;2022-12-29T01:09:22;2.95;;;1.70;;
18754;SDS011;35061;47.664;9.166;2022-12-29T01:12:08;1.98;;;1.60;;
18754;SDS011;35061;47.664;9.166;2022-12-29T01:14:37;2.35;;;1.65;;
18754;SDS011;35061;47.664;9.166;2022-12-29T01:17:05;3.47;;;1.58;;
18754;SDS011;35061;47.664;9.166;2022-12-29T01:19:32;1.50;;;1.33;;
18754;SDS011;35061;47.664;9.166;2022-12-29T01:22:00;2.00;;;1.40;;
18754;SDS011;35061;47.664;9.166;2022-12-29T01:24:28;1.95;;;1.58;;
18754;SDS011;35061;47.664;9.166;2022-12-29T01:26:56;1.80;;;1.55;;
18754;SDS011;35061;47.664;9.166;2022-12-29T01:29:24;2.58;;;1.40;;
18754;SDS011;35061;47.664;9.166;2022-12-29T01:31:52;2.37;;;1.58;;
18754;SDS011;35061;47.664;9.166;2022-12-29T01:34:19;3.15;;;1.48;;
18754;SDS011;35061;47.664;9.166;2022-12-29T01:36:47;2.55;;;1.40;;
18754;SDS011;35061;47.664;9.166;2022-12-29T01:39:15;1.85;;;1.37;;
18754;SDS011;35061;47.664;9.166;2022-12-29T01:41:43;1.77;;;1.55;;
18754;SDS011;35061;47.664;9.166;2022-12-29T01:47:29;2.05;;;1.52;;
18754;SDS011;35061;47.664;9.166;2022-12-29T01:50:05;2.25;;;1.65;;
18754;SDS011;35061;47.664;9.166;2022-12-29T01:52:41;1.52;;;1.12;;
18754;SDS011;35061;47.664;9.166;2022-12-29T01:55:15;1.48;;;0.90;;
18754;SDS011;35061;47.664;9.166;2022-12-29T01:57:45;2.47;;;1.00;;
18754;SDS011;35061;47.664;9.166;2022-12-29T02:00:16;1.12;;;0.95;;
18754;SDS011;35061;47.664;9.166;2022-12-29T02:02:45;0.80;;;0.80;;
18754;SDS011;35061;47.664;9.166;2022-12-29T02:08:03;1.65;;;1.00;;
18754;SDS011;35061;47.664;9.166;2022-12-29T02:10:32;1.23;;;1.12;;
18754;SDS011;35061;47.664;9.166;2022-12-29T02:13:02;0.90;;;0.80;;
18754;SDS011;35061;47.664;9.166;2022-12-29T02:15:34;1.25;;;1.00;;
18754;SDS011;35061;47.664;9.166;2022-12-29T02:23:54;1.65;;;1.50;;
18754;SDS011;35061;47.664;9.166;2022-12-29T02:35:23;1.20;;;1.10;;
18754;SDS011;35061;47.664;9.166;2022-12-29T02:38:18;2.67;;;1.30;;
18754;SDS011;35061;47.664;9.166;2022-12-29T02:40:59;1.77;;;1.00;;
18754;SDS011;35061;47.664;9.166;2022-12-29T02:46:56;1.17;;;1.08;;
18754;SDS011;35061;47.664;9.166;2022-12-29T02:49:36;1.17;;;0.90;;
18754;SDS011;35061;47.664;9.166;2022-12-29T02:52:16;1.23;;;0.93;;
18754;SDS011;35061;47.664;9.166;2022-12-29T02:54:49;1.20;;;1.10;;
18754;SDS011;35061;47.664;9.166;2022-12-29T02:59:50;1.67;;;1.20;;
18754;SDS011;35061;47.664;9.166;2022-12-29T03:02:27;2.40;;;1.40;;
18754;SDS011;35061;47.664;9.166;2022-12-29T03:05:15;1.70;;;1.20;;
18754;SDS011;35061;47.664;9.166;2022-12-29T03:16:42;1.20;;;1.10;;
18754;SDS011;35061;47.664;9.166;2022-12-29T03:19:26;1.67;;;1.40;;
18754;SDS011;35061;47.664;9.166;2022-12-29T03:22:00;2.70;;;1.33;;
18754;SDS011;35061;47.664;9.166;2022-12-29T03:25:01;1.40;;;1.30;;
18754;SDS011;35061;47.664;9.166;2022-12-29T03:27:38;1.48;;;1.20;;
18754;SDS011;35061;47.664;9.166;2022-12-29T03:30:09;3.22;;;1.40;;
18754;SDS011;35061;47.664;9.166;2022-12-29T03:32:42;1.83;;;1.20;;
18754;SDS011;35061;47.664;9.166;2022-12-29T03:35:14;1.40;;;1.30;;
18754;SDS011;35061;47.664;9.166;2022-12-29T03:40:48;1.40;;;1.17;;
18754;SDS011;35061;47.664;9.166;2022-12-29T03:43:19;2.85;;;1.55;;
18754;SDS011;35061;47.664;9.166;2022-12-29T03:45:47;1.40;;;1.20;;
18754;SDS011;35061;47.664;9.166;2022-12-29T03:48:15;1.48;;;1.20;;
18754;SDS011;35061;47.664;9.166;2022-12-29T03:50:43;1.37;;;1.27;;
18754;SDS011;35061;47.664;9.166;2022-12-29T03:53:11;1.30;;;1.20;;
18754;SDS011;35061;47.664;9.166;2022-12-29T03:55:39;1.35;;;1.00;;
18754;SDS011;35061;47.664;9.166;2022-12-29T03:58:07;1.98;;;1.37;;
18754;SDS011;35061;47.664;9.166;2022-12-29T04:00:35;2.15;;;1.20;;
18754;SDS011;35061;47.664;9.166;2022-12-29T04:03:03;1.30;;;0.90;;
18754;SDS011;35061;47.664;9.166;2022-12-29T04:05:31;1.75;;;1.10;;
18754;SDS011;35061;47.664;9.166;2022-12-29T04:07:59;2.28;;;1.10;;
18754;SDS011;35061;47.664;9.166;2022-12-29T04:10:27;1.40;;;1.30;;
18754;SDS011;35061;47.664;9.166;2022-12-29T04:12:55;3.78;;;1.20;;
18754;SDS011;35061;47.664;9.166;2022-12-29T04:15:22;2.87;;;1.52;;
18754;SDS011;35061;47.664;9.166;2022-12-29T04:17:51;1.37;;;1.17;;
18754;SDS011;35061;47.664;9.166;2022-12-29T04:20:19;1.42;;;1.20;;
18754;SDS011;35061;47.664;9.166;2022-12-29T04:23:06;1.30;;;1.20;;
18754;SDS011;35061;47.664;9.166;2022-12-29T04:25:34;2.30;;;1.30;;
18754;SDS011;35061;47.664;9.166;2022-12-29T04:28:02;1.52;;;1.12;;
18754;SDS011;35061;47.664;9.166;2022-12-29T04:30:30;1.25;;;1.10;;
18754;SDS011;35061;47.664;9.166;2022-12-29T04:32:58;1.45;;;1.30;;
18754;SDS011;35061;47.664;9.166;2022-12-29T04:35:25;0.95;;;0.95;;
18754;SDS011;35061;47.664;9.166;2022-12-29T04:37:53;3.80;;;1.20;;
18754;SDS011;35061;47.664;9.166;2022-12-29T04:40:21;2.05;;;1.20;;
18754;SDS011;35061;47.664;9.166;2022-12-29T04:42:50;2.15;;;1.15;;
18754;SDS011;35061;47.664;9.166;2022-12-29T04:45:18;1.00;;;1.00;;
18754;SDS011;35061;47.664;9.166;2022-12-29T04:47:45;1.23;;;1.12;;
18754;SDS011;35061;47.664;9.166;2022-12-29T04:50:13;1.48;;;0.90;;
18754;SDS011;35061;47.664;9.166;2022-12-29T04:52:41;1.23;;;1.12;;
18754;SDS011;35061;47.664;9.166;2022-12-29T04:55:09;2.03;;;1.25;;
18754;SDS011;35061;47.664;9.166;2022-12-29T04:57:37;1.33;;;1.23;;
18754;SDS011;35061;47.664;9.166;2022-12-29T05:00:05;1.00;;;0.93;;
18754;SDS011;35061;47.664;9.166;2022-12-29T05:02:33;1.37;;;1.27;;
18754;SDS011;35061;47.664;9.166;2022-12-29T05:05:01;2.22;;;1.10;;
18754;SDS011;35061;47.664;9.166;2022-12-29T05:07:29;1.20;;;1.10;;
18754;SDS011;35061;47.664;9.166;2022-12-29T05:09:57;1.12;;;1.02;;
18754;SDS011;35061;47.664;9.166;2022-12-29T05:12:25;1.65;;;1.10;;
18754;SDS011;35061;47.664;9.166;2022-12-29T05:14:53;1.42;;;1.17;;
18754;SDS011;35061;47.664;9.166;2022-12-29T05:17:20;1.33;;;1.23;;
18754;SDS011;35061;47.664;9.166;2022-12-29T05:19:48;1.67;;;1.08;;
18754;SDS011;35061;47.664;9.166;2022-12-29T05:22:16;2.47;;;1.25;;
18754;SDS011;35061;47.664;9.166;2022-12-29T05:24:43;1.20;;;1.08;;
18754;SDS011;35061;47.664;9.166;2022-12-29T05:27:12;1.48;;;1.10;;
18754;SDS011;35061;47.664;9.166;2022-12-29T05:29:39;1.98;;;1.50;;
18754;SDS011;35061;47.664;9.166;2022-12-29T05:32:07;1.15;;;0.95;;
18754;SDS011;35061;47.664;9.166;2022-12-29T05:34:35;1.40;;;1.20;;
18754;SDS011;35061;47.664;9.166;2022-12-29T05:37:03;1.67;;;1.12;;
18754;SDS011;35061;47.664;9.166;2022-12-29T05:39:30;1.33;;;1.23;;
18754;SDS011;35061;47.664;9.166;2022-12-29T05:41:58;2.05;;;1.42;;
18754;SDS011;35061;47.664;9.166;2022-12-29T05:44:26;1.52;;;1.08;;
18754;SDS011;35061;47.664;9.166;2022-12-29T05:46:53;2.00;;;1.00;;
18754;SDS011;35061;47.664;9.166;2022-12-29T05:49:21;3.00;;;1.02;;
18754;SDS011;35061;47.664;9.166;2022-12-29T05:51:49;2.78;;;2.10;;
18754;SDS011;35061;47.664;9.166;2022-12-29T05:54:17;1.40;;;1.30;;
18754;SDS011;35061;47.664;9.166;2022-12-29T05:56:44;2.33;;;1.35;;
18754;SDS011;35061;47.664;9.166;2022-12-29T05:59:12;1.20;;;1.10;;
18754;SDS011;35061;47.664;9.166;2022-12-29T06:01:40;1.37;;;1.27;;
18754;SDS011;35061;47.664;9.166;2022-12-29T06:04:08;1.77;;;1.20;;
18754;SDS011;35061;47.664;9.166;2022-12-29T06:06:36;1.75;;;1.30;;
18754;SDS011;35061;47.664;9.166;2022-12-29T06:09:03;2.03;;;1.60;;
18754;SDS011;35061;47.664;9.166;2022-12-29T06:11:32;2.08;;;1.62;;
18754;SDS011;35061;47.664;9.166;2022-12-29T06:13:59;1.95;;;1.50;;
18754;SDS011;35061;47.664;9.166;2022-12-29T06:16:27;3.35;;;1.30;;
18754;SDS011;35061;47.664;9.166;2022-12-29T06:18:55;1.27;;;1.17;;
18754;SDS011;35061;47.664;9.166;2022-12-29T06:21:23;2.42;;;1.62;;
18754;SDS011;35061;47.664;9.166;2022-12-29T06:23:51;2.25;;;1.83;;
18754;SDS011;35061;47.664;9.166;2022-12-29T06:26:18;1.55;;;1.27;;
18754;SDS011;35061;47.664;9.166;2022-12-29T06:28:46;1.62;;;1.33;;
18754;SDS011;35061;47.664;9.166;2022-12-29T06:31:14;1.92;;;1.55;;
18754;SDS011;35061;47.664;9.166;2022-12-29T06:33:42;1.65;;;1.20;;
18754;SDS011;35061;47.664;9.166;2022-12-29T06:36:15;1.50;;;1.23;;
18754;SDS011;35061;47.664;9.166;2022-12-29T06:38:43;1.92;;;1.20;;
18754;SDS011;35061;47.664;9.166;2022-12-29T06:41:10;2.08;;;1.25;;
18754;SDS011;35061;47.664;9.166;2022-12-29T06:43:39;1.52;;;1.42;;
18754;SDS011;35061;47.664;9.166;2022-12-29T06:46:06;1.77;;;1.42;;
18754;SDS011;35061;47.664;9.166;2022-12-29T06:48:34;1.20;;;1.10;;
18754;SDS011;35061;47.664;9.166;2022-12-29T06:51:02;1.40;;;1.30;;
18754;SDS011;35061;47.664;9.166;2022-12-29T06:53:30;2.20;;;1.37;;
18754;SDS011;35061;47.664;9.166;2022-12-29T06:55:58;1.45;;;1.33;;
18754;SDS011;35061;47.664;9.166;2022-12-29T06:58:26;2.10;;;1.37;;
18754;SDS011;35061;47.664;9.166;2022-12-29T07:00:53;4.80;;;1.52;;
18754;SDS011;35061;47.664;9.166;2022-12-29T07:03:21;1.65;;;1.25;;
18754;SDS011;35061;47.664;9.166;2022-12-29T07:05:49;2.70;;;1.52;;
18754;SDS011;35061;47.664;9.166;2022-12-29T07:08:17;2.85;;;2.25;;
18754;SDS011;35061;47.664;9.166;2022-12-29T07:10:45;2.80;;;1.92;;
18754;SDS011;35061;47.664;9.166;2022-12-29T07:13:13;2.03;;;1.35;;
18754;SDS011;35061;47.664;9.166;2022-12-29T07:15:40;2.15;;;1.65;;
18754;SDS011;35061;47.664;9.166;2022-12-29T07:18:08;1.50;;;1.37;;
18754;SDS011;35061;47.664;9.166;2022-12-29T07:20:36;3.92;;;1.73;;
18754;SDS011;35061;47.664;9.166;2022-12-29T07:23:04;3.55;;;1.75;;
18754;SDS011;35061;47.664;9.166;2022-12-29T07:25:32;3.40;;;1.77;;
18754;SDS011;35061;47.664;9.166;2022-12-29T07:28:00;2.62;;;1.87;;
18754;SDS011;35061;47.664;9.166;2022-12-29T07:30:27;2.28;;;1.52;;
18754;SDS011;35061;47.664;9.166;2022-12-29T07:32:55;1.55;;;1.35;;
18754;SDS011;35061;47.664;9.166;2022-12-29T07:35:24;4.90;;;1.60;;
18754;SDS011;35061;47.664;9.166;2022-12-29T07:37:52;2.42;;;1.70;;
18754;SDS011;35061;47.664;9.166;2022-12-29T07:40:19;3.45;;;1.52;;
18754;SDS011;35061;47.664;9.166;2022-12-29T07:42:47;2.40;;;1.80;;
18754;SDS011;35061;47.664;9.166;2022-12-29T07:45:15;3.45;;;2.30;;
18754;SDS011;35061;47.664;9.166;2022-12-29T07:47:43;3.25;;;2.08;;
18754;SDS011;35061;47.664;9.166;2022-12-29T07:50:14;2.72;;;1.35;;
18754;SDS011;35061;47.664;9.166;2022-12-29T07:52:42;2.47;;;1.95;;
18754;SDS011;35061;47.664;9.166;2022-12-29T07:55:10;3.42;;;2.10;;
18754;SDS011;35061;47.664;9.166;2022-12-29T07:57:38;4.07;;;2.25;;
18754;SDS011;35061;47.664;9.166;2022-12-29T08:00:06;2.67;;;2.17;;
18754;SDS011;35061;47.664;9.166;2022-12-29T08:02:34;2.65;;;2.20;;
18754;SDS011;35061;47.664;9.166;2022-12-29T08:05:02;2.92;;;2.20;;
18754;SDS011;35061;47.664;9.166;2022-12-29T08:07:30;2.47;;;2.03;;
18754;SDS011;35061;47.664;9.166;2022-12-29T08:09:58;2.20;;;2.00;;
18754;SDS011;35061;47.664;9.166;2022-12-29T08:12:26;2.70;;;1.80;;
18754;SDS011;35061;47.664;9.166;2022-12-29T08:14:54;2.55;;;1.73;;
18754;SDS011;35061;47.664;9.166;2022-12-29T08:17:21;1.73;;;1.52;;
18754;SDS011;35061;47.664;9.166;2022-12-29T08:19:49;2.45;;;1.60;;
18754;SDS011;35061;47.664;9.166;2022-12-29T08:22:17;3.00;;;1.77;;
18754;SDS011;35061;47.664;9.166;2022-12-29T08:24:44;2.30;;;1.50;;
18754;SDS011;35061;47.664;9.166;2022-12-29T08:27:12;2.33;;;1.80;;
18754;SDS011;35061;47.664;9.166;2022-12-29T08:29:46;3.80;;;1.55;;
18754;SDS011;35061;47.664;9.166;2022-12-29T08:32:13;2.85;;;1.77;;
18754;SDS011;35061;47.664;9.166;2022-12-29T08:34:41;2.65;;;1.75;;
18754;SDS011;35061;47.664;9.166;2022-12-29T08:37:09;2.30;;;1.77;;
18754;SDS011;35061;47.664;9.166;2022-12-29T08:39:37;1.77;;;1.40;;
18754;SDS011;35061;47.664;9.166;2022-12-29T08:42:05;1.92;;;1.50;;
18754;SDS011;35061;47.664;9.166;2022-12-29T08:44:33;1.70;;;1.60;;
18754;SDS011;35061;47.664;9.166;2022-12-29T08:47:01;3.47;;;1.70;;
18754;SDS011;35061;47.664;9.166;2022-12-29T08:49:28;2.65;;;1.58;;
18754;SDS011;35061;47.664;9.166;2022-12-29T08:51:56;2.40;;;1.80;;
18754;SDS011;35061;47.664;9.166;2022-12-29T08:54:24;4.18;;;1.70;;
18754;SDS011;35061;47.664;9.166;2022-12-29T08:56:52;2.55;;;1.50;;
18754;SDS011;35061;47.664;9.166;2022-12-29T08:59:20;4.55;;;1.37;;
18754;SDS011;35061;47.664;9.166;2022-12-29T09:01:49;4.22;;;1.62;;
18754;SDS011;35061;47.664;9.166;2022-12-29T09:04:17;2.22;;;1.87;;
18754;SDS011;35061;47.664;9.166;2022-12-29T09:06:45;2.47;;;1.62;;
18754;SDS011;35061;47.664;9.166;2022-12-29T09:09:12;3.85;;;1.58;;
18754;SDS011;35061;47.664;9.166;2022-12-29T09:11:40;4.18;;;1.80;;
18754;SDS011;35061;47.664;9.166;2022-12-29T09:14:09;6.00;;;2.40;;
18754;SDS011;35061;47.664;9.166;2022-12-29T09:16:37;1.95;;;1.30;;
18754;SDS011;35061;47.664;9.166;2022-12-29T09:19:04;2.17;;;1.35;;
18754;SDS011;35061;47.664;9.166;2022-12-29T09:21:32;1.67;;;1.48;;
18754;SDS011;35061;47.664;9.166;2022-12-29T09:24:01;2.05;;;1.55;;
18754;SDS011;35061;47.664;9.166;2022-12-29T09:26:28;1.95;;;1.48;;
18754;SDS011;35061;47.664;9.166;2022-12-29T09:28:56;5.00;;;1.65;;
18754;SDS011;35061;47.664;9.166;2022-12-29T09:31:24;2.70;;;1.48;;
18754;SDS011;35061;47.664;9.166;2022-12-29T09:33:52;2.40;;;1.37;;
18754;SDS011;35061;47.664;9.166;2022-12-29T09:36:20;3.83;;;1.37;;
18754;SDS011;35061;47.664;9.166;2022-12-29T09:38:49;3.85;;;1.87;;
18754;SDS011;35061;47.664;9.166;2022-12-29T09:41:29;2.03;;;1.20;;
18754;SDS011;35061;47.664;9.166;2022-12-29T09:46:53;1.98;;;1.70;;
18754;SDS011;35061;47.664;9.166;2022-12-29T09:49:39;2.62;;;1.37;;
18754;SDS011;35061;47.664;9.166;2022-12-29T09:52:14;2.28;;;1.20;;
18754;SDS011;35061;47.664;9.166;2022-12-29T09:54:54;3.65;;;1.30;;
18754;SDS011;35061;47.664;9.166;2022-12-29T10:00:13;2.47;;;1.25;;
18754;SDS011;35061;47.664;9.166;2022-12-29T10:02:50;3.17;;;1.20;;
18754;SDS011;35061;47.664;9.166;2022-12-29T10:22:45;2.28;;;1.40;;
18754;SDS011;35061;47.664;9.166;2022-12-29T10:25:37;2.42;;;1.17;;
18754;SDS011;35061;47.664;9.166;2022-12-29T10:28:10;2.33;;;1.15;;
18754;SDS011;35061;47.664;9.166;2022-12-29T10:30:52;1.67;;;1.45;;
18754;SDS011;35061;47.664;9.166;2022-12-29T10:33:21;2.33;;;1.62;;
18754;SDS011;35061;47.664;9.166;2022-12-29T10:35:52;2.62;;;1.87;;
18754;SDS011;35061;47.664;9.166;2022-12-29T10:41:08;1.77;;;1.20;;
18754;SDS011;35061;47.664;9.166;2022-12-29T10:43:45;1.75;;;1.33;;
18754;SDS011;35061;47.664;9.166;2022-12-29T10:46:28;2.35;;;1.40;;
18754;SDS011;35061;47.664;9.166;2022-12-29T10:48:59;1.45;;;1.27;;
18754;SDS011;35061;47.664;9.166;2022-12-29T10:51:30;2.50;;;1.42;;
18754;SDS011;35061;47.664;9.166;2022-12-29T10:56:47;3.60;;;1.90;;
18754;SDS011;35061;47.664;9.166;2022-12-29T11:07:32;2.20;;;1.42;;
18754;SDS011;35061;47.664;9.166;2022-12-29T11:12:59;1.33;;;1.10;;
18754;SDS011;35061;47.664;9.166;2022-12-29T11:15:39;1.60;;;1.30;;
18754;SDS011;35061;47.664;9.166;2022-12-29T11:18:55;2.47;;;1.30;;
18754;SDS011;35061;47.664;9.166;2022-12-29T11:21:07;2.08;;;1.20;;
18754;SDS011;35061;47.664;9.166;2022-12-29T11:23:59;3.42;;;1.10;;
18754;SDS011;35061;47.664;9.166;2022-12-29T11:26:29;1.85;;;1.23;;
18754;SDS011;35061;47.664;9.166;2022-12-29T11:31:45;1.12;;;1.00;;
18754;SDS011;35061;47.664;9.166;2022-12-29T11:34:30;1.67;;;1.25;;
18754;SDS011;35061;47.664;9.166;2022-12-29T11:37:05;1.95;;;1.30;;
18754;SDS011;35061;47.664;9.166;2022-12-29T11:39:42;2.78;;;1.02;;
18754;SDS011;35061;47.664;9.166;2022-12-29T11:42:18;4.50;;;1.50;;
18754;SDS011;35061;47.664;9.166;2022-12-29T11:44:50;1.12;;;1.00;;
18754;SDS011;35061;47.664;9.166;2022-12-29T11:47:24;3.12;;;1.30;;
18754;SDS011;35061;47.664;9.166;2022-12-29T11:49:59;2.35;;;1.20;;
18754;SDS011;35061;47.664;9.166;2022-12-29T11:52:30;3.05;;;1.30;;
18754;SDS011;35061;47.664;9.166;2022-12-29T11:55:03;1.70;;;1.10;;
18754;SDS011;35061;47.664;9.166;2022-12-29T11:57:34;3.65;;;1.52;;
18754;SDS011;35061;47.664;9.166;2022-12-29T12:00:06;2.58;;;1.10;;
18754;SDS011;35061;47.664;9.166;2022-12-29T12:08:14;2.50;;;1.25;;
18754;SDS011;35061;47.664;9.166;2022-12-29T12:13:34;3.08;;;1.30;;
18754;SDS011;35061;47.664;9.166;2022-12-29T12:16:08;3.65;;;1.65;;
18754;SDS011;35061;47.664;9.166;2022-12-29T12:21:27;5.10;;;1.45;;
18754;SDS011;35061;47.664;9.166;2022-12-29T12:24:23;1.83;;;1.27;;
18754;SDS011;35061;47.664;9.166;2022-12-29T12:30:04;2.83;;;1.35;;
18754;SDS011;35061;47.664;9.166;2022-12-29T12:38:32;2.55;;;1.50;;
18754;SDS011;35061;47.664;9.166;2022-12-29T12:46:58;2.50;;;1.50;;
18754;SDS011;35061;47.664;9.166;2022-12-29T12:55:31;3.53;;;2.05;;
18754;SDS011;35061;47.664;9.166;2022-12-29T13:01:18;3.22;;;1.65;;
18754;SDS011;35061;47.664;9.166;2022-12-29T13:10:16;1.58;;;1.35;;
18754;SDS011;35061;47.664;9.166;2022-12-29T13:18:33;1.73;;;1.27;;
18754;SDS011;35061;47.664;9.166;2022-12-29T13:21:27;1.95;;;1.37;;
18754;SDS011;35061;47.664;9.166;2022-12-29T13:24:26;2.15;;;1.23;;
18754;SDS011;35061;47.664;9.166;2022-12-29T13:27:23;2.33;;;1.50;;
18754;SDS011;35061;47.664;9.166;2022-12-29T13:30:03;4.22;;;2.00;;
18754;SDS011;35061;47.664;9.166;2022-12-29T13:32:45;3.05;;;1.55;;
18754;SDS011;35061;47.664;9.166;2022-12-29T13:37:57;1.23;;;1.10;;
18754;SDS011;35061;47.664;9.166;2022-12-29T13:40:32;3.30;;;1.20;;
18754;SDS011;35061;47.664;9.166;2022-12-29T13:43:05;2.83;;;1.40;;
18754;SDS011;35061;47.664;9.166;2022-12-29T13:45:34;1.62;;;1.02;;
18754;SDS011;35061;47.664;9.166;2022-12-29T13:48:22;2.10;;;1.25;;
18754;SDS011;35061;47.664;9.166;2022-12-29T13:51:04;1.30;;;1.20;;
18754;SDS011;35061;47.664;9.166;2022-12-29T14:02:09;2.08;;;1.30;;
18754;SDS011;35061;47.664;9.166;2022-12-29T14:05:00;2.55;;;1.27;;
18754;SDS011;35061;47.664;9.166;2022-12-29T14:07:35;1.60;;;1.40;;
18754;SDS011;35061;47.664;9.166;2022-12-29T14:10:05;1.20;;;1.10;;
18754;SDS011;35061;47.664;9.166;2022-12-29T14:12:40;2.35;;;1.50;;
18754;SDS011;35061;47.664;9.166;2022-12-29T14:17:39;2.05;;;1.17;;
18754;SDS011;35061;47.664;9.166;2022-12-29T14:20:17;2.40;;;1.27;;
18754;SDS011;35061;47.664;9.166;2022-12-29T14:23:01;2.25;;;1.23;;
18754;SDS011;35061;47.664;9.166;2022-12-29T14:28:37;1.20;;;1.10;;
18754;SDS011;35061;47.664;9.166;2022-12-29T14:36:34;1.30;;;1.20;;
18754;SDS011;35061;47.664;9.166;2022-12-29T14:39:04;2.53;;;1.45;;
18754;SDS011;35061;47.664;9.166;2022-12-29T14:44:48;1.90;;;1.25;;
18754;SDS011;35061;47.664;9.166;2022-12-29T14:47:25;2.08;;;1.20;;
18754;SDS011;35061;47.664;9.166;2022-12-29T14:50:22;1.45;;;1.00;;
18754;SDS011;35061;47.664;9.166;2022-12-29T14:52:50;1.55;;;0.95;;
18754;SDS011;35061;47.664;9.166;2022-12-29T14:58:29;2.15;;;1.77;;
18754;SDS011;35061;47.664;9.166;2022-12-29T15:01:03;3.08;;;1.80;;
18754;SDS011;35061;47.664;9.166;2022-12-29T15:03:32;2.28;;;1.40;;
18754;SDS011;35061;47.664;9.166;2022-12-29T15:06:04;1.40;;;1.30;;
18754;SDS011;35061;47.664;9.166;2022-12-29T15:08:49;3.40;;;1.50;;
18754;SDS011;35061;47.664;9.166;2022-12-29T15:17:50;3.00;;;1.60;;
18754;SDS011;35061;47.664;9.166;2022-12-29T15:19:59;1.20;;;1.10;;
18754;SDS011;35061;47.664;9.166;2022-12-29T15:23:12;1.83;;;1.30;;
18754;SDS011;35061;47.664;9.166;2022-12-29T15:25:47;3.78;;;1.33;;
18754;SDS011;35061;47.664;9.166;2022-12-29T15:28:20;1.45;;;1.20;;
18754;SDS011;35061;47.664;9.166;2022-12-29T15:33:26;2.35;;;1.35;;
18754;SDS011;35061;47.664;9.166;2022-12-29T15:35:56;1.92;;;1.23;;
18754;SDS011;35061;47.664;9.166;2022-12-29T15:38:30;1.83;;;1.15;;
18754;SDS011;35061;47.664;9.166;2022-12-29T15:41:06;3.58;;;1.73;;
18754;SDS011;35061;47.664;9.166;2022-12-29T15:46:49;1.60;;;1.35;;
18754;SDS011;35061;47.664;9.166;2022-12-29T15:49:17;2.28;;;1.40;;
18754;SDS011;35061;47.664;9.166;2022-12-29T15:51:51;1.00;;;0.93;;
18754;SDS011;35061;47.664;9.166;2022-12-29T15:54:19;2.60;;;1.20;;
18754;SDS011;35061;47.664;9.166;2022-12-29T15:56:49;1.30;;;1.20;;
18754;SDS011;35061;47.664;9.166;2022-12-29T15:59:24;4.00;;;1.62;;
18754;SDS011;35061;47.664;9.166;2022-12-29T16:01:58;3.80;;;1.62;;
18754;SDS011;35061;47.664;9.166;2022-12-29T16:04:35;2.60;;;1.60;;
18754;SDS011;35061;47.664;9.166;2022-12-29T16:07:30;1.92;;;1.73;;
18754;SDS011;35061;47.664;9.166;2022-12-29T16:10:21;2.75;;;1.40;;
18754;SDS011;35061;47.664;9.166;2022-12-29T16:12:54;2.28;;;1.50;;
18754;SDS011;35061;47.664;9.166;2022-12-29T16:15:22;1.85;;;1.40;;
18754;SDS011;35061;47.664;9.166;2022-12-29T16:17:50;1.67;;;1.10;;
18754;SDS011;35061;47.664;9.166;2022-12-29T16:20:21;2.45;;;1.27;;
18754;SDS011;35061;47.664;9.166;2022-12-29T16:22:55;2.12;;;1.40;;
18754;SDS011;35061;47.664;9.166;2022-12-29T16:25:25;2.08;;;1.37;;
18754;SDS011;35061;47.664;9.166;2022-12-29T16:27:58;2.50;;;1.52;;
18754;SDS011;35061;47.664;9.166;2022-12-29T16:30:29;2.35;;;1.48;;
18754;SDS011;35061;47.664;9.166;2022-12-29T16:33:03;1.62;;;1.23;;
18754;SDS011;35061;47.664;9.166;2022-12-29T16:35:44;5.10;;;1.20;;
18754;SDS011;35061;47.664;9.166;2022-12-29T16:41:03;1.62;;;1.27;;
18754;SDS011;35061;47.664;9.166;2022-12-29T16:43:32;1.52;;;1.08;;
18754;SDS011;35061;47.664;9.166;2022-12-29T16:48:30;1.70;;;1.20;;
18754;SDS011;35061;47.664;9.166;2022-12-29T16:51:03;2.15;;;1.25;;
18754;SDS011;35061;47.664;9.166;2022-12-29T16:53:52;1.52;;;1.15;;
18754;SDS011;35061;47.664;9.166;2022-12-29T16:56:28;4.20;;;1.37;;
18754;SDS011;35061;47.664;9.166;2022-12-29T17:01:39;1.62;;;1.15;;
18754;SDS011;35061;47.664;9.166;2022-12-29T17:04:10;2.78;;;1.62;;
18754;SDS011;35061;47.664;9.166;2022-12-29T17:06:40;1.40;;;1.30;;
18754;SDS011;35061;47.664;9.166;2022-12-29T17:09:18;1.58;;;1.12;;
18754;SDS011;35061;47.664;9.166;2022-12-29T17:11:54;2.20;;;1.10;;
18754;SDS011;35061;47.664;9.166;2022-12-29T17:14:40;2.95;;;1.23;;
18754;SDS011;35061;47.664;9.166;2022-12-29T17:17:17;2.30;;;1.40;;
18754;SDS011;35061;47.664;9.166;2022-12-29T17:20:14;2.00;;;1.33;;
18754;SDS011;35061;47.664;9.166;2022-12-29T17:22:43;2.37;;;1.50;;
18754;SDS011;35061;47.664;9.166;2022-12-29T17:25:12;2.78;;;1.30;;
18754;SDS011;35061;47.664;9.166;2022-12-29T17:27:42;1.35;;;1.25;;
18754;SDS011;35061;47.664;9.166;2022-12-29T17:30:12;2.67;;;1.12;;
18754;SDS011;35061;47.664;9.166;2022-12-29T17:32:43;2.17;;;1.30;;
18754;SDS011;35061;47.664;9.166;2022-12-29T17:35:15;2.00;;;1.58;;
18754;SDS011;35061;47.664;9.166;2022-12-29T17:37:43;2.22;;;1.80;;
18754;SDS011;35061;47.664;9.166;2022-12-29T17:40:15;2.33;;;1.70;;
18754;SDS011;35061;47.664;9.166;2022-12-29T17:42:49;2.00;;;1.77;;
18754;SDS011;35061;47.664;9.166;2022-12-29T17:45:20;2.90;;;2.10;;
18754;SDS011;35061;47.664;9.166;2022-12-29T17:47:50;5.57;;;2.42;;
18754;SDS011;35061;47.664;9.166;2022-12-29T17:50:20;6.00;;;2.45;;
18754;SDS011;35061;47.664;9.166;2022-12-29T17:52:53;4.93;;;2.42;;
18754;SDS011;35061;47.664;9.166;2022-12-29T17:55:26;4.15;;;2.40;;
18754;SDS011;35061;47.664;9.166;2022-12-29T17:58:10;2.62;;;2.10;;
18754;SDS011;35061;47.664;9.166;2022-12-29T18:00:45;3.53;;;1.62;;
18754;SDS011;35061;47.664;9.166;2022-12-29T18:03:22;1.67;;;1.52;;
18754;SDS011;35061;47.664;9.166;2022-12-29T18:05:54;3.15;;;1.60;;
18754;SDS011;35061;47.664;9.166;2022-12-29T18:08:22;1.65;;;1.50;;
18754;SDS011;35061;47.664;9.166;2022-12-29T18:10:50;2.97;;;1.60;;
18754;SDS011;35061;47.664;9.166;2022-12-29T18:13:21;1.67;;;1.30;;
18754;SDS011;35061;47.664;9.166;2022-12-29T18:16:01;2.35;;;1.73;;